Time;durP1;ratioP1;P1;durP2;ratioP2;P2;SDS_P1;SDS_P2;PMS_P1;PMS_P2;Temp;Humidity;BMP_temperature;BMP_pressure;BME280_temperature;BME280_humidity;BME280_pressure;Samples;Min_cycle;Max_cycle;Signal;HPM_P1;HPM_P2
2022/03/05 00:00:38;;;;;;;0.30;0.30;;;;;;;;;;5005907;28;20025;-80
2022/03/05 00:03:05;;;;;;;0.37;0.37;;;;;;;;;;5006600;28;20057;-79
2022/03/05 00:05:31;;;;;;;0.40;0.40;;;;;;;;;;5002992;28;20140;-80
2022/03/05 00:07:57;;;;;;;0.30;0.30;;;;;;;;;;5005945;28;20053;-76
2022/03/05 00:10:23;;;;;;;0.32;0.32;;;;;;;;;;5005916;28;20107;-76
2022/03/05 00:12:49;;;;;;;0.40;0.40;;;;;;;;;;5005631;28;20540;-75
2022/03/05 00:15:16;;;;;;;0.40;0.40;;;;;;;;;;5004436;28;20125;-76
2022/03/05 00:17:42;;;;;;;0.30;0.30;;;;;;;;;;5006215;28;20025;-76
2022/03/05 00:20:09;;;;;;;0.40;0.40;;;;;;;;;;5006097;28;20030;-75
2022/03/05 00:22:35;;;;;;;0.30;0.30;;;;;;;;;;5005228;28;20045;-76
2022/03/05 00:25:01;;;;;;;0.30;0.30;;;;;;;;;;5005132;28;20076;-75
2022/03/05 00:27:27;;;;;;;0.35;0.35;;;;;;;;;;5005124;28;20060;-76
2022/03/05 00:29:53;;;;;;;0.30;0.30;;;;;;;;;;5004018;28;20433;-76
2022/03/05 00:32:20;;;;;;;0.40;0.40;;;;;;;;;;5005819;28;20474;-76
2022/03/05 00:34:46;;;;;;;0.40;0.40;;;;;;;;;;5005148;28;20038;-76
2022/03/05 00:37:12;;;;;;;0.40;0.40;;;;;;;;;;5005418;28;20141;-76
2022/03/05 00:39:38;;;;;;;0.38;0.38;;;;;;;;;;5005447;28;20101;-76
2022/03/05 00:42:04;;;;;;;0.40;0.40;;;;;;;;;;5005423;28;20044;-76
2022/03/05 00:44:31;;;;;;;0.30;0.30;;;;;;;;;;5002148;28;20026;-76
2022/03/05 00:46:57;;;;;;;0.30;0.30;;;;;;;;;;5005327;28;20124;-75
2022/03/05 00:49:23;;;;;;;0.35;0.35;;;;;;;;;;5004983;28;20037;-76
2022/03/05 00:51:50;;;;;;;0.40;0.40;;;;;;;;;;5004886;28;20112;-77
2022/03/05 00:54:16;;;;;;;0.30;0.30;;;;;;;;;;5004484;28;20045;-77
2022/03/05 00:56:43;;;;;;;0.40;0.40;;;;;;;;;;5004702;28;20572;-77
2022/03/05 00:59:09;;;;;;;0.37;0.37;;;;;;;;;;5004593;28;20042;-78
2022/03/05 01:01:35;;;;;;;0.30;0.30;;;;;;;;;;5003169;28;20038;-77
2022/03/05 01:04:01;;;;;;;0.53;0.53;;;;;;;;;;5004699;28;20025;-77
2022/03/05 01:06:27;;;;;;;0.50;0.50;;;;;;;;;;5000018;28;20041;-80
2022/03/05 01:08:53;;;;;;;0.30;0.30;;;;;;;;;;4991138;28;20045;-80
2022/03/05 01:11:20;;;;;;;0.30;0.30;;;;;;;;;;4991217;28;20045;-80
2022/03/05 01:13:46;;;;;;;0.40;0.40;;;;;;;;;;5001905;28;20571;-80
2022/03/05 01:16:13;;;;;;;0.30;0.30;;;;;;;;;;4996596;28;20022;-80
2022/03/05 01:18:39;;;;;;;;;;;;;;;;;;5005173;28;20053;-80
2022/03/05 01:21:05;;;;;;;0.30;0.30;;;;;;;;;;5004892;28;19968;-80
2022/03/05 01:23:31;;;;;;;0.40;0.40;;;;;;;;;;4989827;28;20477;-80
2022/03/05 01:25:57;;;;;;;0.32;0.32;;;;;;;;;;5003038;28;20030;-80
2022/03/05 01:28:23;;;;;;;0.40;0.40;;;;;;;;;;5002519;28;20050;-79
2022/03/05 01:30:50;;;;;;;0.30;0.30;;;;;;;;;;5004231;28;20036;-78
2022/03/05 01:33:17;;;;;;;0.30;0.30;;;;;;;;;;5004391;28;20307;-79
2022/03/05 01:35:44;;;;;;;0.40;0.40;;;;;;;;;;5004108;28;20037;-78
2022/03/05 01:38:10;;;;;;;0.30;0.30;;;;;;;;;;5004724;28;20564;-78
2022/03/05 01:40:36;;;;;;;0.30;0.30;;;;;;;;;;5000284;28;20038;-79
2022/03/05 01:43:02;;;;;;;0.40;0.40;;;;;;;;;;5003912;28;20116;-82
2022/03/05 01:45:28;;;;;;;0.30;0.30;;;;;;;;;;5004200;28;20022;-82
2022/03/05 01:47:54;;;;;;;0.30;0.30;;;;;;;;;;5003882;28;20049;-82
2022/03/05 01:50:21;;;;;;;0.40;0.40;;;;;;;;;;5004582;28;20030;-82
2022/03/05 01:52:47;;;;;;;0.30;0.30;;;;;;;;;;5003691;28;20815;-81
2022/03/05 01:55:13;;;;;;;0.30;0.30;;;;;;;;;;5002293;28;20076;-78
2022/03/05 01:57:39;;;;;;;0.30;0.30;;;;;;;;;;5003593;28;20029;-78
2022/03/05 02:00:08;;;;;;;0.30;0.30;;;;;;;;;;5003826;28;20395;-81
2022/03/05 02:02:34;;;;;;;0.30;0.30;;;;;;;;;;5000060;28;20038;-80
2022/03/05 02:05:00;;;;;;;0.30;0.30;;;;;;;;;;5003562;28;20034;-79
2022/03/05 02:07:26;;;;;;;0.30;0.30;;;;;;;;;;5003222;28;20096;-80
2022/03/05 02:09:52;;;;;;;0.32;0.32;;;;;;;;;;5003078;28;20915;-79
2022/03/05 02:12:19;;;;;;;0.50;0.50;;;;;;;;;;5003484;28;20042;-79
2022/03/05 02:14:45;;;;;;;0.40;0.40;;;;;;;;;;4992388;28;20030;-80
2022/03/05 02:17:11;;;;;;;0.40;0.40;;;;;;;;;;5004015;28;20052;-81
2022/03/05 02:19:37;;;;;;;0.40;0.40;;;;;;;;;;5003457;28;20029;-81
2022/03/05 02:22:04;;;;;;;0.40;0.40;;;;;;;;;;5003691;28;20448;-80
2022/03/05 02:24:33;;;;;;;0.30;0.30;;;;;;;;;;5003543;28;20300;-81
2022/03/05 02:27:00;;;;;;;0.30;0.30;;;;;;;;;;5003323;28;20627;-81
2022/03/05 02:29:26;;;;;;;0.30;0.30;;;;;;;;;;5004331;28;20030;-81
2022/03/05 02:31:53;;;;;;;0.40;0.40;;;;;;;;;;5002979;28;20026;-80
2022/03/05 02:34:20;;;;;;;0.30;0.30;;;;;;;;;;5002889;28;20038;-80
2022/03/05 02:36:46;;;;;;;0.40;0.40;;;;;;;;;;5004682;28;20036;-81
2022/03/05 02:39:12;;;;;;;0.30;0.30;;;;;;;;;;5007211;28;20045;-81
2022/03/05 02:41:38;;;;;;;0.40;0.40;;;;;;;;;;5007392;28;21030;-81
2022/03/05 02:44:04;;;;;;;0.30;0.30;;;;;;;;;;5007518;28;20061;-78
2022/03/05 02:46:30;;;;;;;0.30;0.30;;;;;;;;;;5006948;28;20563;-78
2022/03/05 02:48:57;;;;;;;0.73;0.73;;;;;;;;;;5007249;28;20928;-77
2022/03/05 02:51:23;;;;;;;0.40;0.40;;;;;;;;;;5007299;28;20596;-78
2022/03/05 02:53:49;;;;;;;0.40;0.40;;;;;;;;;;5007262;28;20052;-77
2022/03/05 02:56:15;;;;;;;0.30;0.30;;;;;;;;;;5007751;28;20018;-77
2022/03/05 02:58:41;;;;;;;0.30;0.30;;;;;;;;;;5007148;28;20053;-77
2022/03/05 03:01:08;;;;;;;0.30;0.30;;;;;;;;;;5005714;28;20672;-77
2022/03/05 03:03:34;;;;;;;0.40;0.40;;;;;;;;;;5007191;28;20029;-76
2022/03/05 03:06:00;;;;;;;0.30;0.30;;;;;;;;;;5007429;28;20029;-77
2022/03/05 03:08:26;;;;;;;0.30;0.30;;;;;;;;;;5007422;28;20038;-77
2022/03/05 03:10:52;;;;;;;0.30;0.30;;;;;;;;;;5006853;28;20026;-78
2022/03/05 03:13:18;;;;;;;0.30;0.30;;;;;;;;;;5006529;28;20510;-78
2022/03/05 03:15:44;;;;;;;0.30;0.30;;;;;;;;;;5005047;28;20038;-77
2022/03/05 03:18:10;;;;;;;0.30;0.30;;;;;;;;;;5006714;28;20042;-78
2022/03/05 03:20:36;;;;;;;0.40;0.40;;;;;;;;;;5007215;28;20046;-78
2022/03/05 03:23:03;;;;;;;0.30;0.30;;;;;;;;;;5006631;28;20092;-78
2022/03/05 03:25:29;;;;;;;0.40;0.40;;;;;;;;;;5007054;28;20116;-78
2022/03/05 03:27:55;;;;;;;0.50;0.50;;;;;;;;;;5006789;28;20041;-77
2022/03/05 03:30:21;;;;;;;0.40;0.40;;;;;;;;;;5007165;28;20486;-76
2022/03/05 03:32:47;;;;;;;0.40;0.40;;;;;;;;;;5006598;28;20125;-76
2022/03/05 03:35:14;;;;;;;0.30;0.30;;;;;;;;;;5006608;28;20048;-78
2022/03/05 03:37:40;;;;;;;;;;;;;;;;;;5006567;28;20030;-78
2022/03/05 03:40:08;;;;;;;0.30;0.30;;;;;;;;;;5006069;28;19919;-80
2022/03/05 03:42:34;;;;;;;0.30;0.30;;;;;;;;;;5005794;28;20038;-77
2022/03/05 03:45:00;;;;;;;0.40;0.40;;;;;;;;;;5006042;28;20527;-78
2022/03/05 03:47:26;;;;;;;0.40;0.40;;;;;;;;;;5006111;28;20532;-77
2022/03/05 03:49:52;;;;;;;0.40;0.40;;;;;;;;;;5004936;28;20029;-78
2022/03/05 03:52:19;;;;;;;0.40;0.40;;;;;;;;;;5005802;28;20038;-79
2022/03/05 03:54:46;;;;;;;0.30;0.30;;;;;;;;;;5004288;28;20509;-78
2022/03/05 03:57:12;;;;;;;0.40;0.40;;;;;;;;;;5005843;28;20040;-79
2022/03/05 03:59:38;;;;;;;0.30;0.30;;;;;;;;;;5005995;28;20061;-78
2022/03/05 04:02:05;;;;;;;0.30;0.30;;;;;;;;;;5006462;28;20053;-79
2022/03/05 04:04:31;;;;;;;0.30;0.30;;;;;;;;;;5005899;28;20104;-79
2022/03/05 04:09:42;;;;;;;0.32;0.32;;;;;;;;;;5006130;28;20405;-76
2022/03/05 04:12:08;;;;;;;0.50;0.50;;;;;;;;;;5005830;28;20044;-76
2022/03/05 04:14:35;;;;;;;0.40;0.40;;;;;;;;;;4996733;28;20046;-76
2022/03/05 04:17:01;;;;;;;0.38;0.38;;;;;;;;;;5005730;28;20412;-76
2022/03/05 04:19:27;;;;;;;0.40;0.40;;;;;;;;;;5005099;28;20426;-76
2022/03/05 04:21:53;;;;;;;0.40;0.40;;;;;;;;;;5005237;28;20533;-75
2022/03/05 04:24:19;;;;;;;0.30;0.30;;;;;;;;;;5005855;28;20172;-75
2022/03/05 04:26:45;;;;;;;0.40;0.40;;;;;;;;;;5005302;28;20137;-75
2022/03/05 04:29:11;;;;;;;0.30;0.30;;;;;;;;;;5005764;28;20029;-75
2022/03/05 04:31:37;;;;;;;0.30;0.30;;;;;;;;;;5005109;28;20022;-75
2022/03/05 04:34:03;;;;;;;0.30;0.30;;;;;;;;;;5005110;28;20403;-75
2022/03/05 04:36:29;;;;;;;0.30;0.30;;;;;;;;;;5004905;28;20509;-75
2022/03/05 04:38:55;;;;;;;0.40;0.40;;;;;;;;;;5005233;28;20033;-76
2022/03/05 04:41:21;;;;;;;0.40;0.40;;;;;;;;;;5005736;28;20042;-75
2022/03/05 04:43:47;;;;;;;0.40;0.40;;;;;;;;;;5005116;28;20033;-75
2022/03/05 04:46:15;;;;;;;0.30;0.30;;;;;;;;;;5005110;28;20505;-75
2022/03/05 04:48:41;;;;;;;0.40;0.40;;;;;;;;;;5004496;28;20489;-75
2022/03/05 04:51:07;;;;;;;0.60;0.60;;;;;;;;;;5004670;28;20026;-76
2022/03/05 04:53:33;;;;;;;0.40;0.40;;;;;;;;;;5005463;28;20036;-76
2022/03/05 04:55:59;;;;;;;0.30;0.30;;;;;;;;;;5004721;28;20022;-75
2022/03/05 04:58:25;;;;;;;0.30;0.30;;;;;;;;;;5004678;28;20054;-75
2022/03/05 05:00:51;;;;;;;0.30;0.30;;;;;;;;;;5004770;28;20033;-76
2022/03/05 05:03:17;;;;;;;0.40;0.40;;;;;;;;;;5004950;28;20409;-75
2022/03/05 05:05:43;;;;;;;0.30;0.30;;;;;;;;;;5004969;28;20440;-78
2022/03/05 05:08:09;;;;;;;0.40;0.40;;;;;;;;;;5004967;28;20038;-78
2022/03/05 05:10:35;;;;;;;0.30;0.30;;;;;;;;;;5004081;28;20525;-77
2022/03/05 05:13:01;;;;;;;0.30;0.30;;;;;;;;;;5004651;28;20037;-78
2022/03/05 05:15:27;;;;;;;0.30;0.30;;;;;;;;;;5004273;28;20041;-77
2022/03/05 05:17:53;;;;;;;0.40;0.40;;;;;;;;;;5002739;28;20165;-77
2022/03/05 05:20:19;;;;;;;0.30;0.30;;;;;;;;;;5004661;28;20048;-77
2022/03/05 05:22:45;;;;;;;0.30;0.30;;;;;;;;;;5003596;28;20529;-77
2022/03/05 05:25:11;;;;;;;0.30;0.30;;;;;;;;;;5002489;28;20581;-78
2022/03/05 05:27:38;;;;;;;0.30;0.30;;;;;;;;;;5004160;28;20056;-76
2022/03/05 05:30:05;;;;;;;0.30;0.30;;;;;;;;;;4988352;28;20033;-78
2022/03/05 05:32:31;;;;;;;0.30;0.30;;;;;;;;;;5004525;28;20105;-79
2022/03/05 05:34:57;;;;;;;0.40;0.40;;;;;;;;;;5003993;28;20037;-79
2022/03/05 05:37:23;;;;;;;0.40;0.40;;;;;;;;;;5004142;28;20029;-77
2022/03/05 05:39:49;;;;;;;0.40;0.40;;;;;;;;;;5003902;28;20117;-78
2022/03/05 05:42:15;;;;;;;0.37;0.37;;;;;;;;;;5004040;28;20479;-78
2022/03/05 05:44:41;;;;;;;0.40;0.40;;;;;;;;;;5003834;28;20128;-77
2022/03/05 05:47:07;;;;;;;0.30;0.30;;;;;;;;;;5004626;28;20038;-77
2022/03/05 05:49:34;;;;;;;0.30;0.30;;;;;;;;;;5003954;28;20069;-77
2022/03/05 05:52:00;;;;;;;0.40;0.40;;;;;;;;;;5003832;28;20456;-77
2022/03/05 05:54:26;;;;;;;0.30;0.30;;;;;;;;;;5002227;28;20430;-76
2022/03/05 05:56:52;;;;;;;0.40;0.40;;;;;;;;;;5003755;28;20117;-76
2022/03/05 05:59:18;;;;;;;0.30;0.30;;;;;;;;;;5004639;28;20068;-74
2022/03/05 06:01:44;;;;;;;0.30;0.30;;;;;;;;;;5003823;28;20034;-76
2022/03/05 06:04:10;;;;;;;0.30;0.30;;;;;;;;;;5004220;28;20033;-75
2022/03/05 06:06:36;;;;;;;0.30;0.30;;;;;;;;;;5004276;28;20026;-79
2022/03/05 06:09:03;;;;;;;0.32;0.32;;;;;;;;;;5003733;28;20502;-79
2022/03/05 06:11:30;;;;;;;0.30;0.30;;;;;;;;;;5004003;28;20414;-79
2022/03/05 06:13:55;;;;;;;;;;;;;;;;;;4999170;28;20106;-79
2022/03/05 06:16:21;;;;;;;0.30;0.30;;;;;;;;;;4997972;28;20000;-79
2022/03/05 06:18:48;;;;;;;0.40;0.40;;;;;;;;;;5003508;28;20113;-80
2022/03/05 06:21:14;;;;;;;0.30;0.30;;;;;;;;;;5003241;28;20552;-80
2022/03/05 06:23:40;;;;;;;0.40;0.40;;;;;;;;;;5003908;28;20033;-80
2022/03/05 06:26:06;;;;;;;0.40;0.40;;;;;;;;;;5003608;28;20038;-80
2022/03/05 06:28:33;;;;;;;0.40;0.40;;;;;;;;;;5002987;28;20052;-80
2022/03/05 06:30:59;;;;;;;0.30;0.30;;;;;;;;;;5001648;28;20372;-77
2022/03/05 06:33:25;;;;;;;0.30;0.30;;;;;;;;;;5003470;28;20042;-79
2022/03/05 06:35:51;;;;;;;0.30;0.30;;;;;;;;;;5003502;28;20026;-78
2022/03/05 06:38:18;;;;;;;0.40;0.40;;;;;;;;;;5004047;28;20037;-78
2022/03/05 06:40:44;;;;;;;0.30;0.30;;;;;;;;;;5002917;28;20092;-78
2022/03/05 06:43:10;;;;;;;0.30;0.30;;;;;;;;;;5002488;28;20497;-79
2022/03/05 06:45:37;;;;;;;0.30;0.30;;;;;;;;;;5003154;28;20033;-79
2022/03/05 06:48:03;;;;;;;0.30;0.30;;;;;;;;;;5002340;28;20129;-79
2022/03/05 06:50:29;;;;;;;0.30;0.30;;;;;;;;;;5003501;28;20517;-79
2022/03/05 06:52:55;;;;;;;0.30;0.30;;;;;;;;;;5002714;28;20755;-78
2022/03/05 06:55:23;;;;;;;0.30;0.30;;;;;;;;;;5001827;28;20037;-78
2022/03/05 06:57:49;;;;;;;0.30;0.30;;;;;;;;;;5001066;28;20048;-78
2022/03/05 07:00:15;;;;;;;0.40;0.40;;;;;;;;;;5002775;28;20569;-78
2022/03/05 07:02:42;;;;;;;0.30;0.30;;;;;;;;;;5002505;28;20037;-77
2022/03/05 07:05:08;;;;;;;0.40;0.40;;;;;;;;;;4998056;28;20036;-78
2022/03/05 07:07:34;;;;;;;0.55;0.55;;;;;;;;;;5001549;28;20045;-79
2022/03/05 07:10:00;;;;;;;0.40;0.40;;;;;;;;;;4999588;28;20026;-79
2022/03/05 07:12:32;;;;;;;0.40;0.40;;;;;;;;;;4997235;28;20034;-83
2022/03/05 07:15:01;;;;;;;0.30;0.30;;;;;;;;;;4996396;28;20032;-81
2022/03/05 07:17:28;;;;;;;0.30;0.30;;;;;;;;;;4998477;28;20092;-79
2022/03/05 07:19:55;;;;;;;0.40;0.40;;;;;;;;;;4998574;28;20044;-81
2022/03/05 07:22:22;;;;;;;0.30;0.30;;;;;;;;;;5001031;28;20276;-80
2022/03/05 07:24:49;;;;;;;0.30;0.30;;;;;;;;;;5005268;28;20044;-80
2022/03/05 07:27:15;;;;;;;0.30;0.30;;;;;;;;;;5006187;28;20478;-81
2022/03/05 07:29:46;;;;;;;0.30;0.30;;;;;;;;;;5004535;28;20838;-83
2022/03/05 07:32:12;;;;;;;0.30;0.30;;;;;;;;;;4998777;28;20057;-81
2022/03/05 07:34:38;;;;;;;0.40;0.40;;;;;;;;;;5005895;28;20021;-82
2022/03/05 07:37:04;;;;;;;0.38;0.38;;;;;;;;;;5005270;28;20815;-81
2022/03/05 07:39:30;;;;;;;0.30;0.30;;;;;;;;;;4998726;28;20033;-86
2022/03/05 07:41:56;;;;;;;0.30;0.30;;;;;;;;;;5004924;28;20281;-80
2022/03/05 07:44:22;;;;;;;0.40;0.40;;;;;;;;;;5006142;28;20696;-80
2022/03/05 07:46:48;;;;;;;0.35;0.35;;;;;;;;;;5005555;28;20076;-83
2022/03/05 07:49:15;;;;;;;0.40;0.40;;;;;;;;;;5005238;28;20048;-84
2022/03/05 07:51:41;;;;;;;0.40;0.40;;;;;;;;;;5003378;28;20041;-85
2022/03/05 07:54:07;;;;;;;0.30;0.30;;;;;;;;;;5005224;28;20040;-84
2022/03/05 07:56:33;;;;;;;0.40;0.40;;;;;;;;;;4997941;28;20038;-87
2022/03/05 07:58:59;;;;;;;0.30;0.30;;;;;;;;;;4993790;28;20441;-88
2022/03/05 08:01:25;;;;;;;0.30;0.30;;;;;;;;;;5003882;28;20457;-87
2022/03/05 08:03:51;;;;;;;0.30;0.30;;;;;;;;;;5005224;28;20552;-89
2022/03/05 08:06:17;;;;;;;0.30;0.30;;;;;;;;;;5006909;28;20961;-86
2022/03/05 08:08:43;;;;;;;0.30;0.30;;;;;;;;;;5005921;28;20037;-84
2022/03/05 08:11:11;;;;;;;0.38;0.38;;;;;;;;;;5003375;28;20032;-84
2022/03/05 08:13:37;;;;;;;0.55;0.55;;;;;;;;;;5004158;28;20505;-90
2022/03/05 08:16:03;;;;;;;0.30;0.30;;;;;;;;;;4997484;28;20044;-86
2022/03/05 08:18:30;;;;;;;0.30;0.30;;;;;;;;;;5005271;28;20296;-85
2022/03/05 08:20:56;;;;;;;0.33;0.33;;;;;;;;;;5005132;28;20266;-87
2022/03/05 08:23:22;;;;;;;0.40;0.40;;;;;;;;;;5005875;28;20280;-88
2022/03/05 08:25:48;;;;;;;0.30;0.30;;;;;;;;;;5005152;28;20053;-82
2022/03/05 08:28:14;;;;;;;0.40;0.40;;;;;;;;;;5001385;28;20042;-85
2022/03/05 08:30:40;;;;;;;0.50;0.50;;;;;;;;;;5001199;28;20041;-83
2022/03/05 08:33:06;;;;;;;0.50;0.50;;;;;;;;;;5004729;28;20033;-83
2022/03/05 08:35:32;;;;;;;0.40;0.40;;;;;;;;;;5001810;28;20026;-83
2022/03/05 08:37:58;;;;;;;0.40;0.40;;;;;;;;;;5004882;28;20049;-84
2022/03/05 08:40:24;;;;;;;0.30;0.30;;;;;;;;;;5004911;28;20149;-83
2022/03/05 08:42:50;;;;;;;0.40;0.40;;;;;;;;;;5003778;28;20048;-85
2022/03/05 08:45:16;;;;;;;0.40;0.40;;;;;;;;;;5004827;28;20418;-82
2022/03/05 08:47:44;;;;;;;0.20;0.20;;;;;;;;;;5004373;28;20371;-82
2022/03/05 08:50:10;;;;;;;0.20;0.20;;;;;;;;;;5004841;28;20042;-83
2022/03/05 08:52:36;;;;;;;0.30;0.30;;;;;;;;;;5004865;28;20481;-83
2022/03/05 08:55:06;;;;;;;0.40;0.40;;;;;;;;;;5004766;28;20108;-83
2022/03/05 08:57:32;;;;;;;0.35;0.35;;;;;;;;;;5004980;28;20076;-83
2022/03/05 08:59:58;;;;;;;0.30;0.30;;;;;;;;;;5004507;28;20042;-83
2022/03/05 09:02:24;;;;;;;0.37;0.37;;;;;;;;;;5005438;28;20144;-84
2022/03/05 09:04:50;;;;;;;0.30;0.30;;;;;;;;;;5005133;28;20104;-83
2022/03/05 09:07:17;;;;;;;0.38;0.38;;;;;;;;;;5005183;28;20520;-79
2022/03/05 09:09:43;;;;;;;0.30;0.30;;;;;;;;;;5003263;28;20049;-79
2022/03/05 09:12:09;;;;;;;0.30;0.30;;;;;;;;;;5005041;28;20045;-79
2022/03/05 09:14:35;;;;;;;0.40;0.40;;;;;;;;;;5004814;28;20151;-79
2022/03/05 09:17:01;;;;;;;0.80;0.80;;;;;;;;;;5004407;28;20052;-79
2022/03/05 09:19:27;;;;;;;0.35;0.35;;;;;;;;;;5003994;28;20037;-78
2022/03/05 09:21:53;;;;;;;0.40;0.40;;;;;;;;;;5004338;28;20030;-78
2022/03/05 09:24:19;;;;;;;0.40;0.40;;;;;;;;;;5004165;28;20510;-79
2022/03/05 09:26:45;;;;;;;0.30;0.30;;;;;;;;;;5004176;28;20133;-79
2022/03/05 09:29:11;;;;;;;0.30;0.30;;;;;;;;;;5004443;28;20044;-79
2022/03/05 09:31:39;;;;;;;0.40;0.40;;;;;;;;;;5003573;28;20034;-79
2022/03/05 09:34:05;;;;;;;1.15;1.15;;;;;;;;;;5004124;28;20327;-79
2022/03/05 09:36:31;;;;;;;0.40;0.40;;;;;;;;;;5003878;28;20037;-79
2022/03/05 09:38:57;;;;;;;0.50;0.50;;;;;;;;;;5004308;28;20041;-79
2022/03/05 09:41:23;;;;;;;0.40;0.40;;;;;;;;;;5004776;28;20053;-79
2022/03/05 09:43:50;;;;;;;0.37;0.37;;;;;;;;;;5004302;28;20401;-79
2022/03/05 09:46:20;;;;;;;0.30;0.30;;;;;;;;;;5003741;28;20287;-80
2022/03/05 09:48:46;;;;;;;0.10;0.10;;;;;;;;;;5004052;28;20046;-79
2022/03/05 09:51:12;;;;;;;0.20;0.20;;;;;;;;;;5003974;28;20493;-78
2022/03/05 09:53:38;;;;;;;0.23;0.23;;;;;;;;;;5002057;28;20476;-78
2022/03/05 09:56:04;;;;;;;0.20;0.20;;;;;;;;;;5004070;28;20049;-78
2022/03/05 09:58:30;;;;;;;0.30;0.30;;;;;;;;;;5003622;28;20502;-78
2022/03/05 10:00:56;;;;;;;0.20;0.20;;;;;;;;;;5003839;28;20030;-79
2022/03/05 10:03:22;;;;;;;0.30;0.30;;;;;;;;;;5003681;28;20037;-78
2022/03/05 10:05:49;;;;;;;0.38;0.38;;;;;;;;;;5004505;28;20573;-84
2022/03/05 10:08:16;;;;;;;0.40;0.40;;;;;;;;;;5003771;28;20505;-84
2022/03/05 10:10:54;;;;;;;0.30;0.30;;;;;;;;;;5003744;28;20603;-84
2022/03/05 10:13:24;;;;;;;0.50;0.50;;;;;;;;;;5003814;28;20037;-83
2022/03/05 10:15:52;;;;;;;0.47;0.47;;;;;;;;;;4994251;28;20026;-84
2022/03/05 10:18:18;;;;;;;0.60;0.60;;;;;;;;;;5004340;28;20117;-83
2022/03/05 10:20:52;;;;;;;0.50;0.50;;;;;;;;;;5004166;28;20026;-84
2022/03/05 10:23:19;;;;;;;0.43;0.43;;;;;;;;;;5002256;28;20505;-84
2022/03/05 10:25:50;;;;;;;0.30;0.30;;;;;;;;;;5002304;28;20037;-84
2022/03/05 10:28:23;;;;;;;0.75;0.75;;;;;;;;;;5003750;28;20062;-84
2022/03/05 10:30:51;;;;;;;0.50;0.50;;;;;;;;;;5003343;28;20151;-83
2022/03/05 10:33:24;;;;;;;0.43;0.43;;;;;;;;;;5003444;28;20398;-84
2022/03/05 10:35:51;;;;;;;0.40;0.40;;;;;;;;;;5001688;28;20057;-85
2022/03/05 10:38:17;;;;;;;0.50;0.50;;;;;;;;;;5003812;28;20018;-84
2022/03/05 10:40:43;;;;;;;0.73;0.73;;;;;;;;;;5003036;28;20025;-84
2022/03/05 10:43:09;;;;;;;0.45;0.45;;;;;;;;;;5003122;28;20521;-84
2022/03/05 10:46:08;;;;;;;0.30;0.30;;;;;;;;;;5003289;28;20767;-84
2022/03/05 10:48:36;;;;;;;0.35;0.35;;;;;;;;;;4990990;28;20095;-84
2022/03/05 10:51:10;;;;;;;0.50;0.50;;;;;;;;;;4993395;28;20989;-83
2022/03/05 10:53:39;;;;;;;0.30;0.30;;;;;;;;;;4996102;28;20051;-84
2022/03/05 10:56:20;;;;;;;0.38;0.38;;;;;;;;;;4979147;28;20084;-83
2022/03/05 10:59:09;;;;;;;0.40;0.40;;;;;;;;;;4980338;28;20047;-84
2022/03/05 11:01:38;;;;;;;0.40;0.40;;;;;;;;;;4978321;28;20102;-84
2022/03/05 11:04:05;;;;;;;0.30;0.30;;;;;;;;;;4983411;28;20196;-85
2022/03/05 11:06:32;;;;;;;0.50;0.50;;;;;;;;;;4983821;28;20121;-84
2022/03/05 11:08:58;;;;;;;0.30;0.30;;;;;;;;;;4983662;28;21217;-83
2022/03/05 11:11:24;;;;;;;;;;;;;;;;;;4985466;28;20281;-83
2022/03/05 11:13:50;;;;;;;0.40;0.40;;;;;;;;;;4979424;28;19947;-84
2022/03/05 11:16:17;;;;;;;0.33;0.33;;;;;;;;;;4977597;28;20105;-83
2022/03/05 11:18:43;;;;;;;0.30;0.30;;;;;;;;;;4982408;28;21179;-83
2022/03/05 11:21:09;;;;;;;0.50;0.50;;;;;;;;;;4966803;28;20062;-83
2022/03/05 11:23:37;;;;;;;0.68;0.68;;;;;;;;;;4990807;28;20045;-84
2022/03/05 11:26:07;;;;;;;0.40;0.40;;;;;;;;;;5006791;28;20132;-84
2022/03/05 11:28:37;;;;;;;0.45;0.45;;;;;;;;;;5006326;28;20073;-83
2022/03/05 11:31:07;;;;;;;0.30;0.30;;;;;;;;;;5006897;28;20626;-83
2022/03/05 11:33:38;;;;;;;0.40;0.40;;;;;;;;;;5003815;28;20032;-81
2022/03/05 11:36:05;;;;;;;0.40;0.40;;;;;;;;;;5005179;28;20041;-83
2022/03/05 11:38:36;;;;;;;0.47;0.47;;;;;;;;;;5006230;28;20033;-83
2022/03/05 11:41:06;;;;;;;0.40;0.40;;;;;;;;;;5000787;28;20076;-83
2022/03/05 11:43:42;;;;;;;0.40;0.40;;;;;;;;;;5003245;28;20053;-85
2022/03/05 11:46:08;;;;;;;0.40;0.40;;;;;;;;;;5001994;28;20708;-86
2022/03/05 11:48:38;;;;;;;0.40;0.40;;;;;;;;;;5004280;28;20421;-87
2022/03/05 11:51:08;;;;;;;0.35;0.35;;;;;;;;;;5004851;28;20228;-84
2022/03/05 11:53:34;;;;;;;0.40;0.40;;;;;;;;;;5004822;28;20963;-85
2022/03/05 11:56:19;;;;;;;0.40;0.40;;;;;;;;;;5004933;28;20161;-84
2022/03/05 11:58:45;;;;;;;0.30;0.30;;;;;;;;;;5003241;28;20395;-84
2022/03/05 12:01:30;;;;;;;0.37;0.37;;;;;;;;;;5004836;28;20060;-85
2022/03/05 12:03:58;;;;;;;0.10;0.10;;;;;;;;;;5004790;28;20060;-86
2022/03/05 12:06:24;;;;;;;0.20;0.20;;;;;;;;;;5005237;28;20429;-86
2022/03/05 12:08:51;;;;;;;0.20;0.20;;;;;;;;;;5003850;28;20041;-85
2022/03/05 12:11:21;;;;;;;0.20;0.20;;;;;;;;;;5004633;28;20747;-85
2022/03/05 12:13:52;;;;;;;0.10;0.10;;;;;;;;;;4992688;28;20030;-85
2022/03/05 12:16:25;;;;;;;0.20;0.20;;;;;;;;;;4997856;28;20029;-85
2022/03/05 12:18:52;;;;;;;0.20;0.20;;;;;;;;;;5005323;28;20049;-86
2022/03/05 12:21:29;;;;;;;0.25;0.25;;;;;;;;;;5005350;28;20184;-85
2022/03/05 12:24:02;;;;;;;0.20;0.20;;;;;;;;;;5004819;28;20044;-86
2022/03/05 12:26:35;;;;;;;0.20;0.20;;;;;;;;;;5005636;28;20025;-85
2022/03/05 12:29:03;;;;;;;0.57;0.57;;;;;;;;;;5004309;28;20046;-84
2022/03/05 12:31:29;;;;;;;0.05;0.05;;;;;;;;;;5004791;28;20034;-85
2022/03/05 12:33:55;;;;;;;0.20;0.20;;;;;;;;;;5004650;28;20383;-85
2022/03/05 12:36:22;;;;;;;0.20;0.20;;;;;;;;;;5005305;28;20088;-87
2022/03/05 12:38:58;;;;;;;0.10;0.10;;;;;;;;;;5004974;28;20281;-83
2022/03/05 12:41:25;;;;;;;0.20;0.20;;;;;;;;;;5000910;28;20126;-85
2022/03/05 12:43:51;;;;;;;0.20;0.20;;;;;;;;;;5004078;28;20033;-85
2022/03/05 12:46:17;;;;;;;0.10;0.10;;;;;;;;;;5004059;28;20045;-85
2022/03/05 12:48:43;;;;;;;0.20;0.20;;;;;;;;;;5004038;28;20076;-85
2022/03/05 12:51:10;;;;;;;0.20;0.20;;;;;;;;;;5001724;28;20662;-85
2022/03/05 12:53:36;;;;;;;0.20;0.20;;;;;;;;;;4997540;28;20033;-86
2022/03/05 12:56:03;;;;;;;0.20;0.20;;;;;;;;;;5002790;28;20029;-85
2022/03/05 12:58:36;;;;;;;0.20;0.20;;;;;;;;;;5003212;28;20069;-85
2022/03/05 13:01:07;;;;;;;0.20;0.20;;;;;;;;;;5002517;28;20042;-84
2022/03/05 13:03:33;;;;;;;0.20;0.20;;;;;;;;;;5003370;28;20075;-84
2022/03/05 13:06:00;;;;;;;0.30;0.30;;;;;;;;;;5001788;28;20132;-85
2022/03/05 13:08:27;;;;;;;0.20;0.20;;;;;;;;;;5004540;28;20038;-85
2022/03/05 13:11:07;;;;;;;0.20;0.20;;;;;;;;;;5003584;28;20456;-86
2022/03/05 13:13:35;;;;;;;0.20;0.20;;;;;;;;;;5001215;28;20628;-85
2022/03/05 13:16:02;;;;;;;0.20;0.20;;;;;;;;;;4999445;28;20032;-86
2022/03/05 13:18:28;;;;;;;;;;;;;;;;;;5004110;28;20034;-84
2022/03/05 13:20:59;;;;;;;0.20;0.20;;;;;;;;;;5002751;28;19967;-86
2022/03/05 13:23:25;;;;;;;0.20;0.20;;;;;;;;;;5001208;28;20034;-85
2022/03/05 13:25:51;;;;;;;0.20;0.20;;;;;;;;;;5002091;28;20022;-87
2022/03/05 13:28:21;;;;;;;0.20;0.20;;;;;;;;;;5002784;28;20340;-85
2022/03/05 13:30:50;;;;;;;0.30;0.30;;;;;;;;;;5002715;28;20276;-83
2022/03/05 13:33:36;;;;;;;0.20;0.20;;;;;;;;;;5001102;28;20168;-84
2022/03/05 13:36:12;;;;;;;0.20;0.20;;;;;;;;;;5000280;28;20065;-83
2022/03/05 13:38:38;;;;;;;;;;;;;;;;;;5001076;28;20026;-92
2022/03/05 13:41:05;;;;;;;0.50;0.50;;;;;;;;;;5004102;28;20304;-90
2022/03/05 13:43:34;;;;;;;0.30;0.30;;;;;;;;;;5003805;28;20037;-93
2022/03/05 13:46:00;;;;;;;0.30;0.30;;;;;;;;;;5003803;28;20399;-90
2022/03/05 13:48:27;;;;;;;0.30;0.30;;;;;;;;;;5003260;28;20288;-85
2022/03/05 13:50:53;;;;;;;;;;;;;;;;;;5004592;28;20037;-88
2022/03/05 13:53:21;;;;;;;0.25;0.25;;;;;;;;;;5003877;28;19913;-86
2022/03/05 13:55:47;;;;;;;0.30;0.30;;;;;;;;;;5003182;28;20567;-86
2022/03/05 13:58:22;;;;;;;0.20;0.20;;;;;;;;;;5003925;28;20038;-86
2022/03/05 14:00:48;;;;;;;0.30;0.30;;;;;;;;;;5002533;28;20285;-87
2022/03/05 14:03:19;;;;;;;0.20;0.20;;;;;;;;;;5002955;28;20387;-86
2022/03/05 14:05:45;;;;;;;0.30;0.30;;;;;;;;;;5003186;28;20368;-87
2022/03/05 14:08:11;;;;;;;0.50;0.50;;;;;;;;;;5000335;28;20045;-86
2022/03/05 14:10:39;;;;;;;0.20;0.20;;;;;;;;;;5001996;28;20153;-86
2022/03/05 14:13:05;;;;;;;0.30;0.30;;;;;;;;;;5002228;28;20144;-86
2022/03/05 14:15:32;;;;;;;0.20;0.20;;;;;;;;;;5000271;28;20065;-88
2022/03/05 14:18:11;;;;;;;0.30;0.30;;;;;;;;;;5002648;28;20061;-86
2022/03/05 14:20:44;;;;;;;0.20;0.20;;;;;;;;;;5002279;28;20567;-86
2022/03/05 14:23:14;;;;;;;0.20;0.20;;;;;;;;;;5003359;28;20368;-87
2022/03/05 14:25:41;;;;;;;0.20;0.20;;;;;;;;;;5003717;28;20049;-89
2022/03/05 14:28:07;;;;;;;;;;;;;;;;;;5003453;28;20548;-89
2022/03/05 14:30:34;;;;;;;0.30;0.30;;;;;;;;;;5003596;28;19924;-87
2022/03/05 14:33:01;;;;;;;0.30;0.30;;;;;;;;;;5006818;28;20053;-85
2022/03/05 14:35:27;;;;;;;0.28;0.28;;;;;;;;;;5010973;28;20262;-89
2022/03/05 14:37:55;;;;;;;0.20;0.20;;;;;;;;;;5008677;28;20034;-87
2022/03/05 14:40:24;;;;;;;0.30;0.30;;;;;;;;;;5004928;28;20414;-87
2022/03/05 14:42:50;;;;;;;0.30;0.30;;;;;;;;;;5008591;28;20030;-90
2022/03/05 14:45:17;;;;;;;0.25;0.25;;;;;;;;;;5009445;28;20128;-86
2022/03/05 14:47:44;;;;;;;0.25;0.25;;;;;;;;;;5008469;28;20184;-87